Latest Weather Observations for Cunderdin Airport

IDW60801

Issued at 7:32 pm WST Saturday 23 May 2015 (issued every 30 minutes, with the page automatically refreshed every 10 minutes)

About weather observations | Map of weather stations | Latest weather observations for WA | Other Formats
Station Details ID: 010286 Name: CUNDERDIN AIRFIELD Lat: -31.62 Lon: 117.22 Height: 216.7 m
Data from the previous 72 hours. | See also: Recent months at Cunderdin Airport
Date/Time
WST
Temp
°C
App
Temp
°C
Dew
Point
Rel
Hum
%
Delta-T
°C
Wind Press
QNH
hPa
Press
MSL
hPa
Rain
since 9 am
mm
Dir
 
Spd
km/h
Gust
km/h
Spd
kts
Gust
kts
23/07:30pm 14.6 12.5 11.0 79 1.9 SW 13 19 7 10 1019.8 1019.5 0.0
23/07:00pm 14.0 12.2 9.4 74 2.4 W 9 11 5 6 1019.5 1019.2 0.0
23/06:30pm 14.4 13.0 9.0 70 2.8 WSW 6 7 3 4 1019.1 1018.9 0.0
23/06:00pm 15.7 14.1 8.9 64 3.5 WSW 7 9 4 5 1018.8 1018.6 0.0
23/05:30pm 17.2 15.8 9.4 60 4.1 W 7 9 4 5 1018.6 1018.4 0.0
23/05:00pm 19.4 17.6 9.3 52 5.4 WSW 9 13 5 7 1018.4 1018.2 0.0
23/04:30pm 20.7 18.1 9.3 48 6.1 SW 13 17 7 9 1018.3 1018.1 0.0
23/04:00pm 21.4 18.3 9.0 45 6.6 SW 15 19 8 10 1018.2 1018.0 0.0
23/03:30pm 21.7 18.5 8.6 43 7.0 WSW 15 24 8 13 1018.0 1017.8 0.0
23/03:00pm 21.4 18.5 8.3 43 6.9 SW 13 20 7 11 1018.0 1017.8 0.0
23/02:30pm 21.2 17.8 5.9 37 7.7 W 13 15 7 8 1018.0 1017.8 0.0
23/02:00pm 21.7 18.4 6.4 37 7.8 WSW 13 19 7 10 1018.0 1017.8 0.0
23/01:30pm 21.0 18.0 5.8 37 7.7 W 11 17 6 9 1018.2 1018.0 0.0
23/01:00pm 20.8 17.5 6.4 39 7.3 WSW 13 20 7 11 1018.5 1018.3 0.0
23/12:30pm 20.3 17.0 6.6 41 7.0 SW 13 22 7 12 1018.8 1018.6 0.0
23/12:00pm 20.2 17.2 7.9 45 6.4 WSW 13 17 7 9 1019.3 1019.0 0.0
23/11:30am 19.7 16.9 8.4 48 5.9 SW 13 20 7 11 1019.6 1019.3 0.0
23/11:00am 18.2 16.0 9.3 56 4.7 WSW 11 15 6 8 1019.8 1019.5 0.0
23/10:30am 16.7 15.3 9.4 62 3.8 SW 7 13 4 7 1020.0 1019.7 0.0
23/10:00am 15.2 14.1 10.0 71 2.7 W 6 9 3 5 1020.0 1019.7 0.0
23/09:30am 13.7 13.7 9.9 78 2.0 CALM 0 0 0 0 1020.0 1019.7 0.0
23/09:00am 11.4 11.2 9.1 86 1.2 CALM 0 0 0 0 1019.9 1019.6 0.0
23/08:30am 9.8 9.5 8.6 92 0.6 CALM 0 0 0 0 1019.8 1019.5 0.0
23/08:00am 7.2 6.4 6.6 96 0.3 CALM 0 0 0 0 1019.6 1019.3 0.0
23/07:30am 5.9 4.8 5.3 96 0.3 CALM 0 0 0 0 1019.5 1019.2 0.0
23/07:00am 4.8 3.5 4.1 95 0.3 CALM 0 0 0 0 1019.1 1018.9 0.0
23/06:30am 5.0 3.7 4.3 95 0.3 CALM 0 0 0 0 1018.8 1018.6 0.0
23/06:00am 5.3 4.1 4.6 95 0.3 CALM 0 0 0 0 1018.6 1018.4 0.0
23/05:30am 5.7 4.6 5.0 95 0.3 CALM 0 0 0 0 1018.5 1018.3 0.0
23/05:00am 6.2 4.4 5.3 94 0.4 SW 4 6 2 3 1018.3 1018.1 0.0
23/04:30am 6.2 4.0 5.3 94 0.4 SW 6 7 3 4 1018.1 1017.9 0.0
23/04:00am 6.1 5.0 5.2 94 0.4 CALM 0 0 0 0 1017.8 1017.6 0.0
23/03:30am 6.4 3.7 5.5 94 0.4 ENE 9 11 5 6 1017.7 1017.5 0.0
23/03:00am 6.4 4.2 5.5 94 0.4 NNW 6 7 3 4 1017.7 1017.5 0.0
23/02:30am 6.8 4.7 5.6 92 0.5 NW 6 6 3 3 1017.7 1017.5 0.0
23/02:00am 7.5 5.3 6.0 90 0.7 W 7 9 4 5 1017.6 1017.4 0.0
23/01:30am 8.6 7.9 7.1 90 0.7 CALM 0 0 0 0 1017.7 1017.5 0.0
23/01:00am 7.7 6.9 6.6 93 0.5 CALM 0 0 0 0 1017.7 1017.5 0.0
23/12:30am 7.7 6.9 6.5 92 0.6 CALM 0 0 0 0 1017.7 1017.5 0.0
23/12:00am 7.9 7.1 6.5 91 0.6 CALM 0 0 0 0 1017.9 1017.7 0.0
 
Date/Time
WST
Temp
°C
App
Temp
°C
Dew
Point
Rel
Hum
%
Delta-T
°C
Wind Press
QNH
hPa
Press
MSL
hPa
Rain
since 9 am
mm
Dir
 
Spd
km/h
Gust
km/h
Spd
kts
Gust
kts
22/11:30pm 8.8 8.2 7.3 90 0.7 CALM 0 0 0 0 1017.9 1017.7 0.0
22/11:00pm 9.6 9.1 8.0 90 0.8 CALM 0 0 0 0 1017.8 1017.6 0.0
22/10:30pm 8.9 7.2 7.5 91 0.7 NE 6 7 3 4 1017.9 1017.7 0.0
22/10:00pm 9.4 7.5 7.7 89 0.8 NNE 7 7 4 4 1018.1 1017.9 0.0
22/09:30pm 9.7 7.9 8.1 90 0.8 NNE 7 9 4 5 1018.2 1018.0 0.0
22/09:00pm 10.2 9.8 8.1 87 1.0 CALM 0 0 0 0 1018.6 1018.4 0.0
22/08:30pm 11.3 9.9 8.7 84 1.3 ENE 6 9 3 5 1018.7 1018.5 0.0
22/08:00pm 11.3 9.8 8.5 83 1.4 N 6 7 3 4 1018.7 1018.5 0.0
22/07:30pm 11.7 11.3 8.2 79 1.7 CALM 0 0 0 0 1018.5 1018.3 0.0
22/07:00pm 13.8 12.8 8.8 72 2.5 SSE 4 6 2 3 1018.3 1018.1 0.0
22/06:30pm 16.3 14.6 8.3 59 4.1 SE 7 7 4 4 1018.1 1017.9 0.0
22/06:00pm 16.5 14.8 8.2 58 4.2 ESE 7 9 4 5 1017.9 1017.7 0.0
22/05:30pm 17.5 15.8 8.4 55 4.7 ESE 7 9 4 5 1017.8 1017.6 0.0
22/05:00pm 18.5 17.0 8.5 52 5.2 E 6 7 3 4 1017.7 1017.5 0.0
22/04:30pm 19.6 17.4 8.0 47 6.0 NE 9 13 5 7 1017.7 1017.5 0.0
22/04:00pm 20.3 17.8 8.0 45 6.4 NE 11 17 6 9 1017.6 1017.4 0.0
22/03:30pm 20.7 18.6 8.4 45 6.5 NE 9 15 5 8 1017.7 1017.5 0.0
22/03:00pm 20.4 18.3 8.1 45 6.4 NE 9 17 5 9 1017.7 1017.5 0.0
22/02:30pm 20.6 18.1 8.3 45 6.5 NNE 11 17 6 9 1017.8 1017.6 0.0
22/02:00pm 20.6 18.0 7.9 44 6.6 NNE 11 20 6 11 1018.0 1017.8 0.0
22/01:30pm 19.8 16.7 7.2 44 6.5 NNE 13 22 7 12 1018.2 1018.0 0.0
22/01:00pm 19.2 16.0 7.0 45 6.2 NNE 13 19 7 10 1018.6 1018.4 0.0
22/12:30pm 19.4 16.9 8.1 48 5.9 ENE 11 17 6 9 1019.1 1018.9 0.0
22/12:00pm 18.3 14.2 8.0 51 5.3 NE 19 24 10 13 1019.7 1019.4 0.0
22/11:30am 18.0 13.9 8.0 52 5.2 ENE 19 24 10 13 1020.4 1020.1 0.0
22/11:00am 17.0 12.3 7.6 54 4.8 NE 22 30 12 16 1020.8 1020.5 0.0
22/10:30am 16.4 12.2 8.1 58 4.2 ENE 20 26 11 14 1021.2 1020.9 0.0
22/10:00am 15.5 10.8 7.8 60 3.9 NE 22 32 12 17 1021.5 1021.3 0.0
22/09:30am 15.0 10.4 8.0 63 3.5 ENE 22 30 12 16 1021.4 1021.2 0.0
22/09:00am 14.4 9.8 8.1 66 3.2 ENE 22 30 12 16 1021.8 1021.6 0.2
22/08:30am 13.2 9.6 8.3 72 2.5 ENE 17 28 9 15 1021.9 1021.7 0.2
22/08:00am 11.7 9.7 8.7 82 1.5 SE 9 13 5 7 1021.9 1021.7 0.2
22/07:30am 11.4 8.9 8.4 82 1.5 E 11 15 6 8 1021.8 1021.6 0.2
22/07:00am 11.5 9.1 8.5 82 1.5 ESE 11 15 6 8 1021.7 1021.5 0.2
22/06:30am 11.6 8.9 8.8 83 1.4 E 13 17 7 9 1021.7 1021.5 0.2
22/06:00am 11.6 9.7 9.0 84 1.3 ENE 9 13 5 7 1021.8 1021.6 0.2
22/05:30am 11.1 9.5 8.8 86 1.2 E 7 9 4 5 1021.6 1021.4 0.2
22/05:00am 11.3 8.6 8.9 85 1.2 E 13 19 7 10 1021.5 1021.3 0.2
22/04:30am 11.2 7.2 9.1 87 1.1 NE 20 24 11 13 1021.5 1021.3 0.2
22/04:00am 11.1 5.7 9.4 89 0.9 NE 28 35 15 19 1021.3 1021.0 0.2
22/03:30am 11.4 7.2 8.4 82 1.5 ENE 20 26 11 14 1021.8 1021.6 0.0
22/03:00am 11.7 9.0 7.2 74 2.2 E 11 19 6 10 1022.3 1022.1 0.0
22/02:30am 11.6 9.2 6.9 73 2.3 ESE 9 13 5 7 1022.6 1022.4 0.0
22/02:00am 11.3 8.4 6.6 73 2.2 E 11 13 6 7 1022.7 1022.5 0.0
22/01:30am 10.0 7.4 6.3 78 1.7 SSE 9 11 5 6 1023.0 1022.8 0.0
22/01:00am 11.5 8.9 6.2 70 2.5 E 9 13 5 7 1023.1 1022.9 0.0
22/12:30am 11.7 9.1 6.2 69 2.6 ENE 9 11 5 6 1023.2 1023.0 0.0
22/12:00am 10.8 8.5 5.6 70 2.4 ENE 7 9 4 5 1023.4 1023.2 0.0
 
Date/Time
WST
Temp
°C
App
Temp
°C
Dew
Point
Rel
Hum
%
Delta-T
°C
Wind Press
QNH
hPa
Press
MSL
hPa
Rain
since 9 am
mm
Dir
 
Spd
km/h
Gust
km/h
Spd
kts
Gust
kts
21/11:30pm 10.6 7.0 5.2 69 2.5 E 13 17 7 9 1023.2 1023.0 0.0
21/11:00pm 10.0 6.5 5.4 73 2.1 ENE 13 13 7 7 1023.3 1023.1 0.0
21/10:30pm 10.0 6.5 5.4 73 2.1 ENE 13 15 7 8 1023.2 1023.0 0.0
21/10:00pm 11.1 8.4 5.4 68 2.6 E 9 13 5 7 1023.3 1023.1 0.0
21/09:30pm 11.1 8.4 5.6 69 2.6 E 9 11 5 6 1023.6 1023.4 0.0
21/09:00pm 12.4 9.3 5.6 63 3.2 E 11 15 6 8 1023.5 1023.3 0.0
21/08:30pm 12.7 9.1 5.1 60 3.6 ESE 13 17 7 9 1023.5 1023.3 0.0
21/08:00pm 13.0 9.1 5.2 59 3.6 ESE 15 20 8 11 1023.6 1023.4 0.0
21/07:30pm 13.5 9.2 5.4 58 3.8 ESE 17 22 9 12 1023.8 1023.6 0.0
21/07:00pm 13.5 10.0 5.4 58 3.8 SE 13 19 7 10 1024.1 1023.8 0.0
21/06:30pm 14.4 11.2 5.2 54 4.4 SE 11 15 6 8 1024.1 1023.8 0.0
21/06:00pm 14.8 11.2 4.8 51 4.7 ESE 13 17 7 9 1023.8 1023.6 0.0
21/05:30pm 15.8 11.4 4.5 47 5.3 ESE 17 24 9 13 1023.5 1023.3 0.0
21/05:00pm 16.7 11.9 4.7 45 5.7 ESE 19 24 10 13 1023.3 1023.1 0.0
21/04:30pm 17.9 13.5 4.5 41 6.4 ESE 17 22 9 12 1023.4 1023.2 0.0
21/04:00pm 17.8 13.3 4.0 40 6.5 E 17 26 9 14 1023.7 1023.5 0.0
21/03:30pm 17.7 12.6 3.9 40 6.5 E 20 26 11 14 1024.1 1023.8 0.0
21/03:00pm 18.3 13.5 4.5 40 6.6 E 19 24 10 13 1024.4 1024.1 0.0
21/02:30pm 17.3 13.2 4.3 42 6.2 E 15 20 8 11 1024.4 1024.1 0.0
21/02:00pm 17.4 12.9 4.4 42 6.2 ENE 17 22 9 12 1024.7 1024.4 0.0
21/01:30pm 18.2 13.4 4.4 40 6.6 ENE 19 24 10 13 1024.9 1024.6 0.0
21/01:00pm 17.3 11.8 3.9 41 6.3 ENE 22 28 12 15 1025.5 1025.3 0.0
21/12:30pm 16.8 10.5 3.8 42 6.1 NE 26 30 14 16 1026.1 1025.9 0.0
21/12:00pm 17.2 12.1 4.2 42 6.1 ENE 20 30 11 16 1026.6 1026.4 0.0
21/11:30am 16.3 10.8 4.0 44 5.8 ENE 22 35 12 19 1027.1 1026.9 0.0
21/11:00am 16.1 9.5 4.2 45 5.6 ENE 28 35 15 19 1027.4 1027.2 0.0
21/10:30am 15.1 8.5 4.2 48 5.1 ENE 28 35 15 19 1027.8 1027.6 0.0
21/10:00am 14.4 7.5 4.4 51 4.6 ENE 30 39 16 21 1028.2 1028.0 0.0
21/09:30am 12.5 7.7 4.7 59 3.6 E 19 24 10 13 1028.5 1028.3 0.0
21/09:00am 10.9 5.8 4.1 63 3.0 E 20 26 11 14 1028.7 1028.5 0.0
21/08:30am 9.6 4.7 4.0 68 2.5 E 19 24 10 13 1028.8 1028.6 0.0
21/08:00am 8.4 4.2 3.7 72 2.0 ESE 15 20 8 11 1028.8 1028.6 0.0
21/07:30am 7.2 3.3 3.3 76 1.7 ESE 13 17 7 9 1028.7 1028.5 0.0
21/07:00am 6.3 2.7 2.9 79 1.4 ESE 11 15 6 8 1028.6 1028.4 0.0
21/06:30am 6.6 2.6 3.0 78 1.5 ESE 13 17 7 9 1028.3 1028.1 0.0
21/06:00am 6.6 2.6 3.0 78 1.5 ESE 13 17 7 9 1028.0 1027.8 0.0
21/05:30am 6.8 2.9 3.2 78 1.5 ESE 13 17 7 9 1027.8 1027.6 0.0
21/05:00am 6.8 2.5 3.2 78 1.5 ESE 15 20 8 11 1027.8 1027.6 0.0
21/04:30am 7.0 2.7 3.3 77 1.6 ESE 15 20 8 11 1027.8 1027.6 0.0
21/04:00am 6.5 3.0 3.3 80 1.4 ESE 11 15 6 8 1027.9 1027.7 0.0
21/03:30am 6.6 2.7 3.4 80 1.4 E 13 15 7 8 1028.0 1027.8 0.0
21/03:00am 7.0 3.1 3.6 79 1.5 E 13 17 7 9 1028.1 1027.9 0.0
21/02:30am 6.8 2.9 3.6 80 1.4 E 13 15 7 8 1028.3 1028.1 0.0
21/02:00am 7.1 3.2 3.5 78 1.5 E 13 15 7 8 1028.4 1028.2 0.0
21/01:30am 6.6 2.8 3.8 82 1.2 ENE 13 15 7 8 1028.6 1028.4 0.0
21/01:00am 7.0 4.3 3.6 79 1.5 E 7 9 4 5 1028.6 1028.4 0.0
21/12:30am 7.9 4.9 3.9 76 1.7 ESE 9 13 5 7 1028.8 1028.6 0.0
21/12:00am 8.3 4.5 4.1 75 1.8 ESE 13 17 7 9 1029.0 1028.7 0.0
 
Date/Time
WST
Temp
°C
App
Temp
°C
Dew
Point
Rel
Hum
%
Delta-T
°C
Wind Press
QNH
hPa
Press
MSL
hPa
Rain
since 9 am
mm
Dir
 
Spd
km/h
Gust
km/h
Spd
kts
Gust
kts
20/11:30pm 7.6 4.6 4.0 78 1.6 E 9 11 5 6 1029.1 1028.8 0.0
20/11:00pm 8.4 5.5 4.4 76 1.8 E 9 13 5 7 1029.1 1028.8 0.0
20/10:30pm 8.6 5.3 4.4 75 1.9 E 11 15 6 8 1029.3 1029.1 0.0
20/10:00pm 9.0 5.7 4.6 74 2.0 E 11 15 6 8 1029.5 1029.3 0.0
20/09:30pm 9.7 6.1 4.9 72 2.2 ESE 13 20 7 11 1029.5 1029.3 0.0
20/09:00pm 10.0 6.4 5.0 71 2.3 ESE 13 20 7 11 1029.3 1029.1 0.0
20/08:30pm 10.3 6.3 5.1 70 2.4 ESE 15 20 8 11 1029.2 1028.9 0.0
20/08:00pm 10.7 6.3 5.0 68 2.6 ESE 17 20 9 11 1029.1 1028.8 0.0

Other Formats:

Comma delimited format used in spreadsheet applications
http://www.bom.gov.au/fwo/IDW60801/IDW60801.95625.axf

JavaScript Object Notation format (JSON) in row-major order
http://www.bom.gov.au/fwo/IDW60801/IDW60801.95625.json